x

South Kodiak - 310nm Ssw Of Kodiak, Ak (46066) Wave Buoy

11:50am - Mon 4th May 2015 All times are UTC.

  • Sig Wave height 3.9ft
  • Swell Direction
  • Peak Period 7s
  • Average Period 5s
  • Wind
    16mph, 20mph gusts
  • Sea Temp 42°f
  • Air Temp 41°f
  • Sea Pressure 1014.8mb

More Historic Weather Station data

Upgrade to MSW Pro to gain access to the past 30 days of data for over 8000 Wavebouys and Weather Stations around the globe.

Join Pro

Comparision Forecast

View Surf forecast
   
Mon 05/04 11:50am 4ft 7s 5s 16 20 mph 1014.8mb 42f 41f
10:50am 4.5ft 8s 5s 16 20 mph 1015.1mb 42f 40f
9:50am 4ft 7s 6s 16 18 mph 1015.5mb 42f 41f
8:50am 4.5ft 7s 6s 11 13 mph 1015.5mb 42f 42f
7:50am 5ft 7s 6s 13 16 mph 1015.6mb 42f 42f
6:50am 5ft 7s 6s 9 11 mph 1015.9mb 42f 42f
5:50am 4.5ft 7s 6s 9 11 mph 1015.8mb 42f 43f
4:50am 5ft 7s 6s 7 9 mph 1015.6mb 42f 42f
3:50am 4.5ft 7s 6s 7 9 mph 1015.7mb 42f 42f
2:50am 4.5ft 7s 6s 7 9 mph 1015.5mb 42f 42f
1:50am 4.5ft 7s 6s 9 11 mph 1015.6mb 42f 43f
12:50am 5ft 7s 6s 7 9 mph 1015.9mb 42f 42f
Sun 05/03 11:50pm 5ft 7s 6s 7 9 mph 1016mb 42f 42f
10:50pm 5ft 7s 6s 7 9 mph 1015.9mb 42f 42f
9:50pm 5ft 8s 6s 9
mph
1015.9mb 42f 42f
8:50pm 5ft 8s 6s 9 11 mph 1015.9mb 41f 42f
7:50pm 5ft 7s 5s 9 11 mph 1015.8mb 41f 43f
6:50pm 5ft 7s 6s 11 16 mph 1015.3mb 41f 42f
5:50pm 5ft 6s 5s 16 20 mph 1014.5mb 41f 42f
4:50pm 5ft 6s 5s 18 20 mph 1013.7mb 41f 42f
3:50pm 5ft 8s 5s 18 20 mph 1013mb 41f 42f
2:50pm 5ft 7s 5s 18 22 mph 1012.4mb 41f 42f
1:50pm 5ft 8s 6s 16 20 mph 1012mb 41f 42f
12:50pm 5ft 8s 6s 18 20 mph 1011.6mb 41f 42f
11:50am 4.5ft 7s 5s 18 22 mph 1011.1mb 42f 42f
10:50am 5ft 7s 6s 18 20 mph 1010.6mb 42f 42f
9:50am 5ft 7s 6s 16 18 mph 1010.4mb 42f 42f
8:50am 6ft 8s 6s 11 16 mph 1010mb 42f 40f
7:50am 5ft 8s 6s 16 18 mph 1009.6mb 42f 41f
6:50am 6ft 7s 6s 9 11 mph 1009.1mb 42f 42f
5:50am 6ft 8s 6s 11 16 mph 1008.4mb 42f 42f
4:50am 6.5ft 8s 7s 9 11 mph 1008.2mb 42f 42f
3:50am 7.5ft 9s 7s 9 11 mph 1007.8mb 42f 42f
2:50am 7ft 9s 7s 11 16 mph 1006.7mb 42f 42f
1:50am 8.5ft 9s 7s 11 13 mph 1006.3mb 42f 42f
12:50am 8ft 10s 7s 11 16 mph 1005.9mb 42f 42f
Sat 05/02 11:50pm 9ft 8s 7s 11 13 mph 1005.5mb 42f 42f
10:50pm 9ft 9s 7s 11 13 mph 1004.9mb 42f 42f
9:50pm 8ft 8s 7s 9 13 mph 1004.2mb 42f 42f
8:50pm 9ft 8s 7s 11 13 mph 1003.5mb 41f 42f
7:50pm 9ft 8s 7s 7 9 mph 1002.9mb 41f 41f
6:50pm 8.5ft 8s 7s 13 18 mph 1002.2mb 41f 41f
5:50pm 8ft 8s 6s 11 16 mph 1001.4mb 41f 41f
4:50pm 8.5ft 8s 6s 11 13 mph 1000.8mb 41f 41f
3:50pm 8ft 7s 6s 11 13 mph 1000mb 41f 40f
2:50pm 8.5ft 8s 6s 16 20 mph 999.5mb 41f 40f
1:50pm 8ft 8s 6s 13 18 mph 998.7mb 41f 41f
12:50pm 9ft 7s 6s 18 20 mph 998.1mb 41f 42f
11:50am 9ft 8s 6s 20 25 mph 998.4mb 41f 42f
10:50am 9ft 8s 6s 22 27 mph 999.1mb 41f 42f
9:50am 9.5ft 8s 6s 25 29 mph 1000.1mb 41f 42f
8:50am 10.5ft 7s 6s 27 36 mph 1001.5mb 41f 42f
7:50am 9ft 7s 6s 29 36 mph 1003.1mb 41f 42f
6:50am 8ft 6s 5s 29 36 mph 1004.4mb 41f 42f
5:50am 8.5ft 6s 6s 31 38 mph 1005.4mb 41f 41f
4:50am 7ft 6s 5s 31 36 mph 1006.7mb 41f 41f
3:50am 6ft 5s 5s 29 36 mph 1008.5mb 41f 40f
2:50am 5ft 10s 5s 27 34 mph 1010.1mb 41f 40f
1:50am 5ft 9s 5s 25 31 mph 1011.8mb 41f 40f
12:50am 5ft 10s 6s 20 25 mph 1013.8mb 41f 38f
Fri 05/01 11:50pm 5ft 8s 6s 20 25 mph 1015mb 41f 40f
10:50pm 5ft 8s 6s 16 20 mph 1016.3mb 41f 40f
9:50pm 5ft 10s 6s 16 18 mph 1017.2mb 41f 41f
8:50pm 6ft 8s 6s 13 16 mph 1017.9mb 41f 40f
7:50pm 6ft 9s 6s 9 11 mph 1018.4mb 41f 40f
6:50pm 7ft 10s 7s 13 16 mph 1018.6mb 41f 40f
5:50pm 6.5ft 10s 7s 9 11 mph 1019mb 41f 40f
4:50pm 6ft 10s 7s 11 13 mph 1019.3mb 41f 40f
3:50pm 6ft 9s 6s 7 9 mph 1019.5mb 41f 40f
2:50pm 6ft 9s 7s 11 13 mph 1019.5mb 41f 40f
1:50pm 6ft 11s 7s 13 18 mph 1019.6mb 41f 40f
12:50pm 6ft 9s 6s 11 13 mph 1019.7mb 41f 40f
11:50am 6ft 11s 6s 16 18 mph 1019.7mb 41f 40f
10:50am 6ft 8s 6s 16 20 mph 1019.8mb 41f 41f
9:50am 7ft 9s 6s 16 20 mph 1019.9mb 41f 41f
8:50am 7ft 8s 6s 18 20 mph 1019.8mb 41f 41f
7:50am 8ft 8s 6s 16 20 mph 1019.6mb 41f 41f
6:50am 8ft 10s 6s 18 22 mph 1019.3mb 41f 41f
5:50am 9ft 11s 7s 18 20 mph 1018.8mb 41f 41f
4:50am 9ft 8s 7s 18 22 mph 1018.3mb 41f 41f
3:50am 8.5ft 10s 7s 18 22 mph 1018.1mb 41f 42f
2:50am 9ft 10s 7s 18 22 mph 1018mb 41f 42f
1:50am 9ft 11s 7s 20 25 mph 1017.8mb 41f 42f
12:50am 8.5ft 11s 7s 20 25 mph 1017.6mb 41f 42f
Thu 04/30 11:50pm 8.5ft 11s 6s 20 25 mph 1017.1mb 41f 41f
10:50pm 9ft 10s 7s 22 27 mph 1016.9mb 41f 42f
9:50pm 9ft 8s 6s 22 29 mph 1016.5mb 41f 41f
8:50pm 10ft 12s 7s 22 29 mph 1015.9mb 41f 41f
7:50pm 11ft 9s 7s 22 29 mph 1015.1mb 41f 41f
6:50pm 11.5ft 9s 7s 22 27 mph 1014.4mb 41f 41f
5:50pm 11ft 8s 7s 25 29 mph 1013.7mb 41f 41f
4:50pm 11ft 11s 7s 22 29 mph 1013.2mb 41f 41f
3:50pm 13ft 11s 8s 25 29 mph 1012.4mb 41f 41f
2:50pm 13ft 12s 7s 25 29 mph 1011.6mb 41f 41f
1:50pm 11.5ft 12s 7s 27 31 mph 1011.1mb 41f 41f